createdAt,value
2018-01-27T00:02:38.232Z,102004
2018-01-27T00:07:41.810Z,102008
2018-01-27T00:12:45.309Z,102016
2018-01-27T00:17:49.214Z,102013
2018-01-27T00:22:53.647Z,102021
2018-01-27T00:27:57.876Z,102027
2018-01-27T00:33:02.473Z,102022
2018-01-27T00:38:07.071Z,102026
2018-01-27T00:43:10.185Z,102027
2018-01-27T00:48:13.674Z,102030
2018-01-27T00:53:17.152Z,102033
2018-01-27T00:58:21.648Z,102030
2018-01-27T01:03:25.145Z,102026
2018-01-27T01:08:29.585Z,102030
2018-01-27T01:13:32.693Z,102034
2018-01-27T01:18:36.553Z,102037
2018-01-27T01:23:40.053Z,102039
2018-01-27T01:28:43.209Z,102040
2018-01-27T01:33:47.445Z,102044
2018-01-27T01:38:50.545Z,102052
2018-01-27T01:44:00.547Z,102062
2018-01-27T01:49:22.444Z,102062
2018-01-27T01:54:26.328Z,102054
2018-01-27T01:59:30.807Z,102050
2018-01-27T02:04:35.256Z,102048
2018-01-27T02:09:39.852Z,102050
2018-01-27T02:14:44.465Z,102044
2018-01-27T02:19:48.329Z,102052
2018-01-27T02:24:51.429Z,102058
2018-01-27T02:29:54.889Z,102069
2018-01-27T02:34:58.440Z,102071
2018-01-27T02:40:02.694Z,102073
2018-01-27T02:45:06.573Z,102083
2018-01-27T02:50:11.175Z,102080
2018-01-27T02:55:14.664Z,102093
2018-01-27T03:00:18.148Z,102102
2018-01-27T03:05:22.394Z,102102
2018-01-27T03:10:26.656Z,102106
2018-01-27T03:15:29.892Z,102112
2018-01-27T03:20:34.333Z,102102
2018-01-27T03:25:38.588Z,102107
2018-01-27T03:30:42.448Z,102118
2018-01-27T03:35:45.616Z,102123
2018-01-27T03:40:49.841Z,102131
2018-01-27T03:45:53.708Z,102139
2018-01-27T03:50:57.570Z,102139
2018-01-27T03:56:02.008Z,102148
2018-01-27T04:01:06.480Z,102142
2018-01-27T04:06:10.353Z,102153
2018-01-27T04:11:13.920Z,102166
2018-01-27T04:16:17.802Z,102175
2018-01-27T04:21:20.952Z,102176
2018-01-27T04:26:24.810Z,102183
2018-01-27T04:31:29.246Z,102196
2018-01-27T04:36:33.701Z,102192
2018-01-27T04:41:38.190Z,102200
2018-01-27T04:46:42.051Z,102207
2018-01-27T04:51:46.667Z,102209
2018-01-27T04:56:51.280Z,102207
2018-01-27T05:01:54.359Z,102209
2018-01-27T05:06:58.235Z,102211
2018-01-27T05:12:02.700Z,102227
2018-01-27T05:17:07.299Z,102232
2018-01-27T05:22:11.731Z,102244
2018-01-27T05:27:14.811Z,102256
2018-01-27T05:32:19.003Z,102260
2018-01-27T05:37:22.517Z,102271
2018-01-27T05:42:27.028Z,102283
2018-01-27T05:47:31.156Z,102290
2018-01-27T05:52:34.250Z,102291
2018-01-27T05:57:38.715Z,102297
2018-01-27T06:02:43.151Z,102296
2018-01-27T06:07:47.635Z,102296
2018-01-27T06:12:52.142Z,102301
2018-01-27T06:17:57.535Z,102316
2018-01-27T06:23:01.958Z,102314
2018-01-27T06:28:06.415Z,102320
2018-01-27T06:33:10.639Z,102326
2018-01-27T06:38:14.496Z,102309
2018-01-27T06:43:18.346Z,102322
2018-01-27T06:48:22.632Z,102330
2018-01-27T06:53:27.070Z,102339
2018-01-27T06:58:30.572Z,102344
2018-01-27T07:03:33.678Z,102357
2018-01-27T07:08:38.123Z,102365
2018-01-27T07:13:42.568Z,102380
2018-01-27T07:18:46.056Z,102381
2018-01-27T07:23:50.576Z,102387
2018-01-27T07:28:54.472Z,102396
2018-01-27T07:33:58.695Z,102403
2018-01-27T07:39:02.669Z,102413
2018-01-27T07:44:07.121Z,102419
2018-01-27T07:49:11.559Z,102423
2018-01-27T07:54:15.796Z,102420
2018-01-27T07:59:19.657Z,102423
2018-01-27T08:04:23.167Z,102429
2018-01-27T08:09:26.255Z,102436
2018-01-27T08:14:30.678Z,102444
2018-01-27T08:19:35.039Z,102456
2018-01-27T08:24:39.487Z,102456
2018-01-27T08:29:44.172Z,102462
2018-01-27T08:34:48.032Z,102471
2018-01-27T08:39:52.491Z,102469
2018-01-27T08:44:55.981Z,102469
2018-01-27T08:49:59.543Z,102487
2018-01-27T08:55:04.157Z,102496
2018-01-27T09:00:08.024Z,102491
2018-01-27T09:05:12.464Z,102485
2018-01-27T09:10:16.325Z,102476
2018-01-27T09:15:20.784Z,102452
2018-01-27T09:20:25.395Z,102453
2018-01-27T09:25:29.256Z,102455
2018-01-27T09:30:33.494Z,102454
2018-01-27T09:35:37.939Z,102460
2018-01-27T09:40:42.379Z,102467
2018-01-27T09:45:45.475Z,102475
2018-01-27T09:50:49.329Z,102474
2018-01-27T09:55:53.784Z,102480
2018-01-27T10:00:58.283Z,102482
2018-01-27T10:06:02.736Z,102483
2018-01-27T10:11:05.823Z,102479
2018-01-27T10:16:10.263Z,102493
2018-01-27T10:21:14.495Z,102481
2018-01-27T10:26:19.554Z,102473
2018-01-27T10:31:23.991Z,102467
2018-01-27T10:36:27.480Z,102462
2018-01-27T10:41:30.584Z,102459
2018-01-27T10:46:35.023Z,102457
2018-01-27T10:51:39.472Z,102458
2018-01-27T10:56:43.915Z,102467
2018-01-27T11:01:47.408Z,102468
2018-01-27T11:06:50.896Z,102461
2018-01-27T11:11:54.030Z,102460
2018-01-27T11:16:58.471Z,102465
2018-01-27T11:22:01.568Z,102446
2018-01-27T11:27:04.768Z,102459
2018-01-27T11:32:09.211Z,102463
2018-01-27T11:37:13.088Z,102451
2018-01-27T11:42:17.660Z,102458
2018-01-27T11:47:21.901Z,102456
2018-01-27T11:52:26.359Z,102456
2018-01-27T11:57:30.794Z,102447
2018-01-27T12:02:35.239Z,102444
2018-01-27T12:07:39.488Z,102431
2018-01-27T12:12:43.724Z,102434
2018-01-27T12:17:47.604Z,102434
2018-01-27T12:22:52.052Z,102429
2018-01-27T12:27:57.640Z,102438
2018-01-27T12:33:02.083Z,102433
2018-01-27T12:38:06.320Z,102426
2018-01-27T12:43:10.905Z,102422
2018-01-27T12:48:15.351Z,102409
2018-01-27T12:53:19.796Z,102397
2018-01-27T12:58:24.237Z,102385
2018-01-27T13:03:28.683Z,102371
2018-01-27T13:08:33.132Z,102361
2018-01-27T13:13:37.598Z,102364
2018-01-27T13:18:41.473Z,102368
2018-01-27T13:23:45.916Z,102377
2018-01-27T13:28:50.365Z,102392
2018-01-27T13:33:54.804Z,102376
2018-01-27T13:38:58.741Z,102361
2018-01-27T13:44:03.183Z,102345
2018-01-27T13:49:07.641Z,102344
2018-01-27T13:54:11.500Z,102334
2018-01-27T13:59:15.373Z,102349
2018-01-27T14:04:19.833Z,102355
2018-01-27T14:09:23.357Z,102366
2018-01-27T14:14:27.864Z,102362
2018-01-27T14:19:32.331Z,102366
2018-01-27T14:24:36.926Z,102354
2018-01-27T14:29:41.164Z,102367
2018-01-27T14:34:45.606Z,102395
2018-01-27T14:39:50.043Z,102410
2018-01-27T14:44:53.126Z,102417
2018-01-27T14:49:57.571Z,102423
2018-01-27T14:55:01.051Z,102422
2018-01-27T15:00:05.486Z,102412
2018-01-27T15:05:08.614Z,102410
2018-01-27T15:10:13.197Z,102397
2018-01-27T15:15:17.646Z,102394
2018-01-27T15:20:22.129Z,102396
2018-01-27T15:25:26.120Z,102400
2018-01-27T15:30:30.561Z,102393
2018-01-27T15:35:35.149Z,102376
2018-01-27T15:40:41.648Z,102382
2018-01-27T15:45:46.235Z,102370
2018-01-27T15:50:50.675Z,102365
2018-01-27T15:55:55.759Z,102371
2018-01-27T16:01:00.209Z,102369
2018-01-27T16:06:04.744Z,102375
2018-01-27T16:11:09.223Z,102369
2018-01-27T16:16:12.880Z,102373
2018-01-27T16:21:17.133Z,102378
2018-01-27T16:26:21.724Z,102390
2018-01-27T16:31:26.175Z,102394
2018-01-27T16:36:30.652Z,102394
2018-01-27T16:41:35.919Z,102395
2018-01-27T16:46:40.381Z,102396
2018-01-27T16:51:43.864Z,102413
2018-01-27T16:56:48.459Z,102416
2018-01-27T17:01:51.965Z,102417
2018-01-27T17:06:55.845Z,102433
2018-01-27T17:12:00.351Z,102440
2018-01-27T17:17:04.231Z,102438
2018-01-27T17:22:07.723Z,102438
2018-01-27T17:27:11.597Z,102425
2018-01-27T17:32:15.479Z,102418
2018-01-27T17:37:20.703Z,102413
2018-01-27T17:42:25.126Z,102410
2018-01-27T17:47:28.980Z,102396
2018-01-27T17:52:32.071Z,102394
2018-01-27T17:57:36.890Z,102408
2018-01-27T18:02:41.335Z,102394
2018-01-27T18:07:45.192Z,102398
2018-01-27T18:12:49.647Z,102405
2018-01-27T18:17:53.535Z,102389
2018-01-27T18:22:58.127Z,102360
2018-01-27T18:28:01.978Z,102377
2018-01-27T18:33:06.403Z,102391
2018-01-27T18:38:10.259Z,102415
2018-01-27T18:43:13.346Z,102425
2018-01-27T18:48:17.797Z,102392
2018-01-27T18:53:22.084Z,102375
2018-01-27T18:58:26.541Z,102377
2018-01-27T19:03:30.399Z,102391
2018-01-27T19:08:34.255Z,102385
2018-01-27T19:13:38.713Z,102394
2018-01-27T19:18:42.572Z,102377
2018-01-27T19:23:46.434Z,102359
2018-01-27T19:28:49.527Z,102345
2018-01-27T19:39:21.383Z,102335
2018-01-27T19:44:26.721Z,102330
2018-01-27T19:49:30.563Z,102323
2018-01-27T19:54:35.007Z,102319
2018-01-27T19:59:39.607Z,102315
2018-01-27T20:04:42.697Z,102326
2018-01-27T20:09:45.755Z,102316
2018-01-27T20:14:50.788Z,102307
2018-01-27T20:19:54.998Z,102301
2018-01-27T20:24:59.796Z,102290
2018-01-27T20:30:03.665Z,102293
2018-01-27T20:35:07.902Z,102291
2018-01-27T20:40:12.599Z,102289
2018-01-27T20:45:16.071Z,102274
2018-01-27T20:50:19.963Z,102276
2018-01-27T20:55:24.410Z,102265
2018-01-27T21:00:28.313Z,102268
2018-01-27T21:05:32.888Z,102264
2018-01-27T21:10:37.146Z,102269
2018-01-27T21:15:40.311Z,102282
2018-01-27T21:20:44.754Z,102292
2018-01-27T21:25:49.199Z,102305
2018-01-27T21:30:52.735Z,102309
2018-01-27T21:35:57.175Z,102308
2018-01-27T21:41:01.789Z,102304
2018-01-27T21:46:04.924Z,102312
2018-01-27T21:51:09.366Z,102290
2018-01-27T21:56:12.458Z,102289
2018-01-27T22:01:15.934Z,102286
2018-01-27T22:06:20.787Z,102282
2018-01-27T22:11:25.431Z,102282
2018-01-27T22:16:28.931Z,102278
2018-01-27T22:21:32.764Z,102270
2018-01-27T22:26:36.304Z,102269
2018-01-27T22:31:42.498Z,102277
2018-01-27T22:36:45.974Z,102282
2018-01-27T22:41:50.395Z,102283
2018-01-27T22:46:54.632Z,102281
2018-01-27T22:51:59.225Z,102282
2018-01-27T22:57:03.472Z,102281
2018-01-27T23:02:06.939Z,102291
2018-01-27T23:07:11.358Z,102292
2018-01-27T23:12:14.488Z,102303
2018-01-27T23:17:19.867Z,102295
2018-01-27T23:22:24.452Z,102292
2018-01-27T23:27:28.673Z,102286
2018-01-27T23:32:33.230Z,102279
2018-01-27T23:37:36.678Z,102275
2018-01-27T23:42:40.916Z,102274
2018-01-27T23:47:44.840Z,102270
2018-01-27T23:52:49.044Z,102271
2018-01-27T23:57:53.119Z,102267
